sensor_id;sensor_type;location;lat;lon;timestamp;P1;durP1;ratioP1;P2;durP2;ratioP2
8562;SDS011;16392;52.508;13.468;2022-12-10T00:02:13;331.60;;;69.57;;
8562;SDS011;16392;52.508;13.468;2022-12-10T00:04:40;328.83;;;64.53;;
8562;SDS011;16392;52.508;13.468;2022-12-10T00:07:07;329.97;;;65.93;;
8562;SDS011;16392;52.508;13.468;2022-12-10T00:09:34;331.60;;;73.27;;
8562;SDS011;16392;52.508;13.468;2022-12-10T00:12:02;333.40;;;69.80;;
8562;SDS011;16392;52.508;13.468;2022-12-10T00:14:36;329.33;;;66.27;;
8562;SDS011;16392;52.508;13.468;2022-12-10T00:17:04;327.27;;;60.27;;
8562;SDS011;16392;52.508;13.468;2022-12-10T00:19:30;328.57;;;61.00;;
8562;SDS011;16392;52.508;13.468;2022-12-10T00:21:57;330.03;;;61.80;;
8562;SDS011;16392;52.508;13.468;2022-12-10T00:24:24;326.67;;;62.03;;
8562;SDS011;16392;52.508;13.468;2022-12-10T00:26:52;330.33;;;63.30;;
8562;SDS011;16392;52.508;13.468;2022-12-10T00:29:19;330.23;;;63.77;;
8562;SDS011;16392;52.508;13.468;2022-12-10T00:31:46;333.33;;;66.17;;
8562;SDS011;16392;52.508;13.468;2022-12-10T00:34:14;327.67;;;59.83;;
8562;SDS011;16392;52.508;13.468;2022-12-10T00:36:42;328.20;;;59.27;;
8562;SDS011;16392;52.508;13.468;2022-12-10T00:39:10;332.67;;;68.07;;
8562;SDS011;16392;52.508;13.468;2022-12-10T00:41:38;325.87;;;60.70;;
8562;SDS011;16392;52.508;13.468;2022-12-10T00:44:05;328.13;;;63.93;;
8562;SDS011;16392;52.508;13.468;2022-12-10T00:46:31;327.33;;;63.40;;
8562;SDS011;16392;52.508;13.468;2022-12-10T00:48:58;325.10;;;58.13;;
8562;SDS011;16392;52.508;13.468;2022-12-10T00:51:28;329.80;;;60.07;;
8562;SDS011;16392;52.508;13.468;2022-12-10T00:53:55;334.07;;;65.63;;
8562;SDS011;16392;52.508;13.468;2022-12-10T00:56:24;328.10;;;58.73;;
8562;SDS011;16392;52.508;13.468;2022-12-10T00:58:52;329.00;;;62.43;;
8562;SDS011;16392;52.508;13.468;2022-12-10T01:01:21;329.27;;;62.63;;
8562;SDS011;16392;52.508;13.468;2022-12-10T01:03:51;326.17;;;61.40;;
8562;SDS011;16392;52.508;13.468;2022-12-10T01:06:19;327.30;;;61.23;;
8562;SDS011;16392;52.508;13.468;2022-12-10T01:08:50;327.40;;;61.13;;
8562;SDS011;16392;52.508;13.468;2022-12-10T01:11:18;328.10;;;60.20;;
8562;SDS011;16392;52.508;13.468;2022-12-10T01:13:47;327.10;;;58.70;;
8562;SDS011;16392;52.508;13.468;2022-12-10T01:16:15;325.53;;;59.40;;
8562;SDS011;16392;52.508;13.468;2022-12-10T01:18:44;328.20;;;62.00;;
8562;SDS011;16392;52.508;13.468;2022-12-10T01:21:11;327.40;;;62.53;;
8562;SDS011;16392;52.508;13.468;2022-12-10T01:23:39;329.17;;;62.83;;
8562;SDS011;16392;52.508;13.468;2022-12-10T01:26:10;325.90;;;61.33;;
8562;SDS011;16392;52.508;13.468;2022-12-10T01:28:39;325.13;;;57.33;;
8562;SDS011;16392;52.508;13.468;2022-12-10T01:31:07;324.40;;;58.03;;
8562;SDS011;16392;52.508;13.468;2022-12-10T01:33:38;325.70;;;59.10;;
8562;SDS011;16392;52.508;13.468;2022-12-10T01:36:06;325.87;;;60.77;;
8562;SDS011;16392;52.508;13.468;2022-12-10T01:38:34;330.83;;;66.30;;
8562;SDS011;16392;52.508;13.468;2022-12-10T01:41:01;328.27;;;64.23;;
8562;SDS011;16392;52.508;13.468;2022-12-10T01:43:29;327.57;;;59.40;;
8562;SDS011;16392;52.508;13.468;2022-12-10T01:46:16;325.47;;;62.17;;
8562;SDS011;16392;52.508;13.468;2022-12-10T01:48:43;325.53;;;60.57;;
8562;SDS011;16392;52.508;13.468;2022-12-10T01:51:10;328.73;;;67.87;;
8562;SDS011;16392;52.508;13.468;2022-12-10T01:53:39;328.10;;;62.60;;
8562;SDS011;16392;52.508;13.468;2022-12-10T01:56:06;327.70;;;60.63;;
8562;SDS011;16392;52.508;13.468;2022-12-10T01:58:36;326.33;;;64.03;;
8562;SDS011;16392;52.508;13.468;2022-12-10T02:01:04;332.57;;;78.73;;
8562;SDS011;16392;52.508;13.468;2022-12-10T02:03:36;325.83;;;62.47;;
8562;SDS011;16392;52.508;13.468;2022-12-10T02:06:13;323.93;;;60.93;;
8562;SDS011;16392;52.508;13.468;2022-12-10T02:08:51;321.37;;;60.50;;
8562;SDS011;16392;52.508;13.468;2022-12-10T02:11:24;324.37;;;59.83;;
8562;SDS011;16392;52.508;13.468;2022-12-10T02:13:57;324.70;;;59.00;;
8562;SDS011;16392;52.508;13.468;2022-12-10T02:16:30;330.10;;;64.30;;
8562;SDS011;16392;52.508;13.468;2022-12-10T02:19:00;318.60;;;58.33;;
8562;SDS011;16392;52.508;13.468;2022-12-10T02:21:34;320.43;;;58.50;;
8562;SDS011;16392;52.508;13.468;2022-12-10T02:24:03;319.43;;;58.27;;
8562;SDS011;16392;52.508;13.468;2022-12-10T02:26:35;320.33;;;60.80;;
8562;SDS011;16392;52.508;13.468;2022-12-10T02:29:12;320.83;;;60.43;;
8562;SDS011;16392;52.508;13.468;2022-12-10T02:31:42;321.73;;;59.40;;
8562;SDS011;16392;52.508;13.468;2022-12-10T02:34:12;324.70;;;63.33;;
8562;SDS011;16392;52.508;13.468;2022-12-10T02:36:41;320.27;;;60.23;;
8562;SDS011;16392;52.508;13.468;2022-12-10T02:39:12;321.93;;;58.40;;
8562;SDS011;16392;52.508;13.468;2022-12-10T02:41:43;323.30;;;60.60;;
8562;SDS011;16392;52.508;13.468;2022-12-10T02:44:15;320.73;;;59.07;;
8562;SDS011;16392;52.508;13.468;2022-12-10T02:46:44;323.60;;;58.30;;
8562;SDS011;16392;52.508;13.468;2022-12-10T02:49:14;317.17;;;57.93;;
8562;SDS011;16392;52.508;13.468;2022-12-10T02:51:42;320.93;;;59.60;;
8562;SDS011;16392;52.508;13.468;2022-12-10T02:57:03;320.60;;;59.33;;
8562;SDS011;16392;52.508;13.468;2022-12-10T02:59:43;319.77;;;61.70;;
8562;SDS011;16392;52.508;13.468;2022-12-10T03:02:22;322.83;;;64.17;;
8562;SDS011;16392;52.508;13.468;2022-12-10T03:04:56;320.03;;;58.77;;
8562;SDS011;16392;52.508;13.468;2022-12-10T03:07:28;320.30;;;59.07;;
8562;SDS011;16392;52.508;13.468;2022-12-10T03:10:00;320.17;;;62.93;;
8562;SDS011;16392;52.508;13.468;2022-12-10T03:12:30;324.20;;;63.57;;
8562;SDS011;16392;52.508;13.468;2022-12-10T03:15:03;324.33;;;62.23;;
8562;SDS011;16392;52.508;13.468;2022-12-10T03:17:34;325.50;;;62.37;;
8562;SDS011;16392;52.508;13.468;2022-12-10T03:20:04;322.23;;;61.57;;
8562;SDS011;16392;52.508;13.468;2022-12-10T03:22:34;319.27;;;58.53;;
8562;SDS011;16392;52.508;13.468;2022-12-10T03:25:04;318.13;;;58.73;;
8562;SDS011;16392;52.508;13.468;2022-12-10T03:27:31;319.63;;;57.37;;
8562;SDS011;16392;52.508;13.468;2022-12-10T03:29:59;322.93;;;60.87;;
8562;SDS011;16392;52.508;13.468;2022-12-10T03:32:28;319.40;;;59.13;;
8562;SDS011;16392;52.508;13.468;2022-12-10T03:34:56;323.87;;;62.43;;
8562;SDS011;16392;52.508;13.468;2022-12-10T03:37:26;328.83;;;64.03;;
8562;SDS011;16392;52.508;13.468;2022-12-10T03:39:54;317.83;;;59.90;;
8562;SDS011;16392;52.508;13.468;2022-12-10T03:42:21;321.83;;;59.13;;
8562;SDS011;16392;52.508;13.468;2022-12-10T03:44:49;324.00;;;61.40;;
8562;SDS011;16392;52.508;13.468;2022-12-10T03:47:18;328.63;;;65.83;;
8562;SDS011;16392;52.508;13.468;2022-12-10T03:49:46;327.67;;;66.03;;
8562;SDS011;16392;52.508;13.468;2022-12-10T03:52:14;324.87;;;63.07;;
8562;SDS011;16392;52.508;13.468;2022-12-10T03:54:41;320.67;;;58.60;;
8562;SDS011;16392;52.508;13.468;2022-12-10T03:57:08;329.73;;;63.30;;
8562;SDS011;16392;52.508;13.468;2022-12-10T03:59:35;323.93;;;60.37;;
8562;SDS011;16392;52.508;13.468;2022-12-10T04:02:02;322.57;;;60.03;;
8562;SDS011;16392;52.508;13.468;2022-12-10T04:04:29;326.20;;;61.10;;
8562;SDS011;16392;52.508;13.468;2022-12-10T04:06:58;325.30;;;61.23;;
8562;SDS011;16392;52.508;13.468;2022-12-10T04:09:25;322.80;;;57.90;;
8562;SDS011;16392;52.508;13.468;2022-12-10T04:11:54;324.13;;;66.97;;
8562;SDS011;16392;52.508;13.468;2022-12-10T04:14:21;323.13;;;58.80;;
8562;SDS011;16392;52.508;13.468;2022-12-10T04:17:05;325.07;;;61.90;;
8562;SDS011;16392;52.508;13.468;2022-12-10T04:19:38;321.93;;;59.33;;
8562;SDS011;16392;52.508;13.468;2022-12-10T04:22:07;323.73;;;59.50;;
8562;SDS011;16392;52.508;13.468;2022-12-10T04:24:53;323.37;;;58.97;;
8562;SDS011;16392;52.508;13.468;2022-12-10T04:27:48;323.67;;;57.37;;
8562;SDS011;16392;52.508;13.468;2022-12-10T04:30:15;322.70;;;59.20;;
8562;SDS011;16392;52.508;13.468;2022-12-10T04:32:42;322.57;;;57.73;;
8562;SDS011;16392;52.508;13.468;2022-12-10T04:35:09;324.10;;;59.63;;
8562;SDS011;16392;52.508;13.468;2022-12-10T04:37:37;323.10;;;57.63;;
8562;SDS011;16392;52.508;13.468;2022-12-10T04:40:04;324.97;;;59.63;;
8562;SDS011;16392;52.508;13.468;2022-12-10T04:42:45;324.53;;;58.80;;
8562;SDS011;16392;52.508;13.468;2022-12-10T04:45:11;327.37;;;61.10;;
8562;SDS011;16392;52.508;13.468;2022-12-10T04:47:38;325.50;;;59.67;;
8562;SDS011;16392;52.508;13.468;2022-12-10T04:50:05;326.47;;;59.90;;
8562;SDS011;16392;52.508;13.468;2022-12-10T04:52:32;329.97;;;60.30;;
8562;SDS011;16392;52.508;13.468;2022-12-10T04:55:00;325.23;;;60.60;;
8562;SDS011;16392;52.508;13.468;2022-12-10T04:57:26;325.70;;;61.17;;
8562;SDS011;16392;52.508;13.468;2022-12-10T04:59:53;324.37;;;58.57;;
8562;SDS011;16392;52.508;13.468;2022-12-10T05:02:20;340.57;;;61.20;;
8562;SDS011;16392;52.508;13.468;2022-12-10T05:04:47;330.53;;;61.67;;
8562;SDS011;16392;52.508;13.468;2022-12-10T05:07:14;329.67;;;63.17;;
8562;SDS011;16392;52.508;13.468;2022-12-10T05:09:40;325.67;;;58.87;;
8562;SDS011;16392;52.508;13.468;2022-12-10T05:12:08;329.57;;;61.10;;
8562;SDS011;16392;52.508;13.468;2022-12-10T05:14:35;332.63;;;59.17;;
8562;SDS011;16392;52.508;13.468;2022-12-10T05:17:02;330.13;;;59.90;;
8562;SDS011;16392;52.508;13.468;2022-12-10T05:19:30;330.50;;;62.43;;
8562;SDS011;16392;52.508;13.468;2022-12-10T05:21:56;331.17;;;58.87;;
8562;SDS011;16392;52.508;13.468;2022-12-10T05:24:41;329.67;;;58.87;;
8562;SDS011;16392;52.508;13.468;2022-12-10T05:27:09;330.77;;;58.27;;
8562;SDS011;16392;52.508;13.468;2022-12-10T05:29:37;333.83;;;60.07;;
8562;SDS011;16392;52.508;13.468;2022-12-10T05:32:03;332.87;;;59.17;;
8562;SDS011;16392;52.508;13.468;2022-12-10T05:34:31;334.10;;;59.80;;
8562;SDS011;16392;52.508;13.468;2022-12-10T05:36:57;333.33;;;59.60;;
8562;SDS011;16392;52.508;13.468;2022-12-10T05:39:26;333.10;;;61.07;;
8562;SDS011;16392;52.508;13.468;2022-12-10T05:41:53;334.50;;;61.77;;
8562;SDS011;16392;52.508;13.468;2022-12-10T05:44:20;333.30;;;60.93;;
8562;SDS011;16392;52.508;13.468;2022-12-10T05:46:47;336.23;;;61.47;;
8562;SDS011;16392;52.508;13.468;2022-12-10T05:49:14;336.60;;;63.57;;
8562;SDS011;16392;52.508;13.468;2022-12-10T05:51:41;336.57;;;62.80;;
8562;SDS011;16392;52.508;13.468;2022-12-10T05:54:09;332.60;;;58.27;;
8562;SDS011;16392;52.508;13.468;2022-12-10T05:56:36;336.57;;;67.07;;
8562;SDS011;16392;52.508;13.468;2022-12-10T05:59:03;334.37;;;61.83;;
8562;SDS011;16392;52.508;13.468;2022-12-10T06:01:32;334.63;;;61.70;;
8562;SDS011;16392;52.508;13.468;2022-12-10T06:04:01;333.70;;;58.73;;
8562;SDS011;16392;52.508;13.468;2022-12-10T06:06:30;337.07;;;64.27;;
8562;SDS011;16392;52.508;13.468;2022-12-10T06:08:58;334.23;;;60.37;;
8562;SDS011;16392;52.508;13.468;2022-12-10T06:11:25;335.00;;;61.57;;
8562;SDS011;16392;52.508;13.468;2022-12-10T06:13:53;332.73;;;60.30;;
8562;SDS011;16392;52.508;13.468;2022-12-10T06:16:20;332.50;;;63.07;;
8562;SDS011;16392;52.508;13.468;2022-12-10T06:18:49;334.80;;;58.23;;
8562;SDS011;16392;52.508;13.468;2022-12-10T06:21:15;333.43;;;62.77;;
8562;SDS011;16392;52.508;13.468;2022-12-10T06:23:43;333.97;;;59.20;;
8562;SDS011;16392;52.508;13.468;2022-12-10T06:26:11;332.30;;;59.73;;
8562;SDS011;16392;52.508;13.468;2022-12-10T06:28:39;335.80;;;60.23;;
8562;SDS011;16392;52.508;13.468;2022-12-10T06:31:06;333.47;;;59.90;;
8562;SDS011;16392;52.508;13.468;2022-12-10T06:33:33;341.83;;;63.73;;
8562;SDS011;16392;52.508;13.468;2022-12-10T06:36:03;355.87;;;63.77;;
8562;SDS011;16392;52.508;13.468;2022-12-10T06:38:31;335.50;;;61.50;;
8562;SDS011;16392;52.508;13.468;2022-12-10T06:40:57;336.97;;;61.10;;
8562;SDS011;16392;52.508;13.468;2022-12-10T06:43:27;338.60;;;61.40;;
8562;SDS011;16392;52.508;13.468;2022-12-10T06:45:54;338.63;;;68.43;;
8562;SDS011;16392;52.508;13.468;2022-12-10T06:48:20;334.57;;;63.77;;
8562;SDS011;16392;52.508;13.468;2022-12-10T06:50:47;337.40;;;63.30;;
8562;SDS011;16392;52.508;13.468;2022-12-10T06:53:16;335.57;;;61.90;;
8562;SDS011;16392;52.508;13.468;2022-12-10T06:55:43;337.57;;;63.40;;
8562;SDS011;16392;52.508;13.468;2022-12-10T06:58:09;334.30;;;59.47;;
8562;SDS011;16392;52.508;13.468;2022-12-10T07:00:36;334.60;;;64.07;;
8562;SDS011;16392;52.508;13.468;2022-12-10T07:03:03;333.90;;;61.23;;
8562;SDS011;16392;52.508;13.468;2022-12-10T07:05:29;336.73;;;62.73;;
8562;SDS011;16392;52.508;13.468;2022-12-10T07:07:57;330.90;;;60.73;;
8562;SDS011;16392;52.508;13.468;2022-12-10T07:10:25;334.30;;;64.20;;
8562;SDS011;16392;52.508;13.468;2022-12-10T07:12:52;330.33;;;58.57;;
8562;SDS011;16392;52.508;13.468;2022-12-10T07:15:18;341.33;;;64.47;;
8562;SDS011;16392;52.508;13.468;2022-12-10T07:17:45;331.57;;;59.80;;
8562;SDS011;16392;52.508;13.468;2022-12-10T07:20:12;333.03;;;60.70;;
8562;SDS011;16392;52.508;13.468;2022-12-10T07:22:38;336.63;;;65.90;;
8562;SDS011;16392;52.508;13.468;2022-12-10T07:25:05;335.63;;;59.70;;
8562;SDS011;16392;52.508;13.468;2022-12-10T07:27:34;335.37;;;62.53;;
8562;SDS011;16392;52.508;13.468;2022-12-10T07:30:01;332.10;;;61.33;;
8562;SDS011;16392;52.508;13.468;2022-12-10T07:32:28;336.70;;;63.80;;
8562;SDS011;16392;52.508;13.468;2022-12-10T07:34:55;331.90;;;58.47;;
8562;SDS011;16392;52.508;13.468;2022-12-10T07:37:22;334.10;;;63.80;;
8562;SDS011;16392;52.508;13.468;2022-12-10T07:39:48;337.07;;;64.57;;
8562;SDS011;16392;52.508;13.468;2022-12-10T07:42:15;333.33;;;63.00;;
8562;SDS011;16392;52.508;13.468;2022-12-10T07:44:43;335.73;;;63.77;;
8562;SDS011;16392;52.508;13.468;2022-12-10T07:47:09;331.87;;;60.53;;
8562;SDS011;16392;52.508;13.468;2022-12-10T07:49:36;333.13;;;61.80;;
8562;SDS011;16392;52.508;13.468;2022-12-10T07:52:03;334.97;;;65.70;;
8562;SDS011;16392;52.508;13.468;2022-12-10T07:54:30;335.40;;;63.00;;
8562;SDS011;16392;52.508;13.468;2022-12-10T07:56:57;339.03;;;66.83;;
8562;SDS011;16392;52.508;13.468;2022-12-10T07:59:24;333.57;;;63.03;;
8562;SDS011;16392;52.508;13.468;2022-12-10T08:01:52;334.90;;;60.30;;
8562;SDS011;16392;52.508;13.468;2022-12-10T08:04:19;334.97;;;62.40;;
8562;SDS011;16392;52.508;13.468;2022-12-10T08:06:45;337.87;;;62.87;;
8562;SDS011;16392;52.508;13.468;2022-12-10T08:09:12;337.67;;;64.73;;
8562;SDS011;16392;52.508;13.468;2022-12-10T08:14:09;336.70;;;61.70;;
8562;SDS011;16392;52.508;13.468;2022-12-10T08:16:36;337.07;;;65.97;;
8562;SDS011;16392;52.508;13.468;2022-12-10T08:19:04;333.87;;;61.00;;
8562;SDS011;16392;52.508;13.468;2022-12-10T08:21:31;334.10;;;60.83;;
8562;SDS011;16392;52.508;13.468;2022-12-10T08:23:59;339.03;;;66.87;;
8562;SDS011;16392;52.508;13.468;2022-12-10T08:26:27;335.73;;;64.27;;
8562;SDS011;16392;52.508;13.468;2022-12-10T08:28:55;334.20;;;61.03;;
8562;SDS011;16392;52.508;13.468;2022-12-10T08:31:22;338.77;;;68.77;;
8562;SDS011;16392;52.508;13.468;2022-12-10T08:33:51;339.07;;;63.47;;
8562;SDS011;16392;52.508;13.468;2022-12-10T08:36:19;338.13;;;69.07;;
8562;SDS011;16392;52.508;13.468;2022-12-10T08:38:46;338.53;;;62.37;;
8562;SDS011;16392;52.508;13.468;2022-12-10T08:41:14;334.43;;;59.27;;
8562;SDS011;16392;52.508;13.468;2022-12-10T08:43:42;336.37;;;59.97;;
8562;SDS011;16392;52.508;13.468;2022-12-10T08:46:10;335.27;;;62.60;;
8562;SDS011;16392;52.508;13.468;2022-12-10T08:48:38;338.17;;;63.33;;
8562;SDS011;16392;52.508;13.468;2022-12-10T08:51:05;338.67;;;61.83;;
8562;SDS011;16392;52.508;13.468;2022-12-10T08:53:34;339.03;;;65.00;;
8562;SDS011;16392;52.508;13.468;2022-12-10T08:56:01;338.93;;;62.30;;
8562;SDS011;16392;52.508;13.468;2022-12-10T08:58:28;356.00;;;72.27;;
8562;SDS011;16392;52.508;13.468;2022-12-10T09:00:55;334.80;;;59.93;;
8562;SDS011;16392;52.508;13.468;2022-12-10T09:03:22;335.57;;;58.73;;
8562;SDS011;16392;52.508;13.468;2022-12-10T09:05:52;336.33;;;58.83;;
8562;SDS011;16392;52.508;13.468;2022-12-10T09:08:19;337.77;;;65.83;;
8562;SDS011;16392;52.508;13.468;2022-12-10T09:10:47;342.50;;;64.83;;
8562;SDS011;16392;52.508;13.468;2022-12-10T09:13:14;338.43;;;62.40;;
8562;SDS011;16392;52.508;13.468;2022-12-10T09:15:40;339.77;;;67.43;;
8562;SDS011;16392;52.508;13.468;2022-12-10T09:18:14;337.40;;;65.33;;
8562;SDS011;16392;52.508;13.468;2022-12-10T09:20:41;335.70;;;60.27;;
8562;SDS011;16392;52.508;13.468;2022-12-10T09:23:08;338.63;;;64.47;;
8562;SDS011;16392;52.508;13.468;2022-12-10T09:25:35;342.37;;;64.40;;
8562;SDS011;16392;52.508;13.468;2022-12-10T09:28:03;337.73;;;60.13;;
8562;SDS011;16392;52.508;13.468;2022-12-10T09:30:30;338.57;;;64.30;;
8562;SDS011;16392;52.508;13.468;2022-12-10T09:32:56;340.40;;;65.70;;
8562;SDS011;16392;52.508;13.468;2022-12-10T09:35:23;342.43;;;68.87;;
8562;SDS011;16392;52.508;13.468;2022-12-10T09:37:50;337.60;;;61.30;;
8562;SDS011;16392;52.508;13.468;2022-12-10T09:40:16;341.17;;;60.77;;
8562;SDS011;16392;52.508;13.468;2022-12-10T09:42:49;342.47;;;63.43;;
8562;SDS011;16392;52.508;13.468;2022-12-10T09:45:24;342.30;;;63.00;;
8562;SDS011;16392;52.508;13.468;2022-12-10T09:48:01;347.73;;;69.30;;
8562;SDS011;16392;52.508;13.468;2022-12-10T09:50:35;343.43;;;62.33;;
8562;SDS011;16392;52.508;13.468;2022-12-10T09:53:11;339.00;;;63.77;;
8562;SDS011;16392;52.508;13.468;2022-12-10T09:55:42;343.30;;;63.67;;
8562;SDS011;16392;52.508;13.468;2022-12-10T09:58:13;350.13;;;67.23;;
8562;SDS011;16392;52.508;13.468;2022-12-10T10:00:46;340.97;;;60.87;;
8562;SDS011;16392;52.508;13.468;2022-12-10T10:03:14;343.57;;;68.57;;
8562;SDS011;16392;52.508;13.468;2022-12-10T10:05:42;340.60;;;64.57;;
8562;SDS011;16392;52.508;13.468;2022-12-10T10:08:13;341.33;;;61.20;;
8562;SDS011;16392;52.508;13.468;2022-12-10T10:10:48;341.83;;;60.83;;
8562;SDS011;16392;52.508;13.468;2022-12-10T10:13:26;336.50;;;59.23;;
8562;SDS011;16392;52.508;13.468;2022-12-10T10:15:58;340.87;;;61.70;;
8562;SDS011;16392;52.508;13.468;2022-12-10T10:18:41;342.70;;;62.77;;
8562;SDS011;16392;52.508;13.468;2022-12-10T10:21:13;338.47;;;60.77;;
8562;SDS011;16392;52.508;13.468;2022-12-10T10:23:45;338.83;;;59.90;;
8562;SDS011;16392;52.508;13.468;2022-12-10T10:26:12;342.47;;;63.90;;
8562;SDS011;16392;52.508;13.468;2022-12-10T10:28:39;339.43;;;60.23;;
8562;SDS011;16392;52.508;13.468;2022-12-10T10:31:11;341.73;;;60.57;;
8562;SDS011;16392;52.508;13.468;2022-12-10T10:33:47;342.30;;;60.93;;
8562;SDS011;16392;52.508;13.468;2022-12-10T10:36:22;342.33;;;59.63;;
8562;SDS011;16392;52.508;13.468;2022-12-10T10:38:50;344.40;;;60.13;;
8562;SDS011;16392;52.508;13.468;2022-12-10T10:41:17;340.87;;;58.87;;
8562;SDS011;16392;52.508;13.468;2022-12-10T10:43:43;345.00;;;61.23;;
8562;SDS011;16392;52.508;13.468;2022-12-10T10:46:12;346.60;;;66.10;;
8562;SDS011;16392;52.508;13.468;2022-12-10T10:48:41;340.43;;;61.13;;
8562;SDS011;16392;52.508;13.468;2022-12-10T10:51:12;343.70;;;61.70;;
8562;SDS011;16392;52.508;13.468;2022-12-10T10:53:46;343.03;;;64.73;;
8562;SDS011;16392;52.508;13.468;2022-12-10T10:56:16;345.23;;;63.23;;
8562;SDS011;16392;52.508;13.468;2022-12-10T10:58:47;341.17;;;60.97;;
8562;SDS011;16392;52.508;13.468;2022-12-10T11:01:20;344.83;;;63.83;;
8562;SDS011;16392;52.508;13.468;2022-12-10T11:03:49;341.77;;;60.13;;
8562;SDS011;16392;52.508;13.468;2022-12-10T11:06:20;345.50;;;64.27;;
8562;SDS011;16392;52.508;13.468;2022-12-10T11:08:48;342.87;;;61.70;;
8562;SDS011;16392;52.508;13.468;2022-12-10T11:11:18;344.60;;;63.63;;
8562;SDS011;16392;52.508;13.468;2022-12-10T11:13:46;345.57;;;61.30;;
8562;SDS011;16392;52.508;13.468;2022-12-10T11:16:16;345.80;;;62.57;;
8562;SDS011;16392;52.508;13.468;2022-12-10T11:18:53;344.37;;;60.00;;
8562;SDS011;16392;52.508;13.468;2022-12-10T11:21:22;344.63;;;62.07;;
8562;SDS011;16392;52.508;13.468;2022-12-10T11:23:51;349.17;;;63.40;;
8562;SDS011;16392;52.508;13.468;2022-12-10T11:26:30;344.97;;;61.53;;
8562;SDS011;16392;52.508;13.468;2022-12-10T11:29:18;348.23;;;65.10;;
8562;SDS011;16392;52.508;13.468;2022-12-10T11:32:07;344.43;;;65.33;;
8562;SDS011;16392;52.508;13.468;2022-12-10T11:35:00;345.93;;;70.00;;
8562;SDS011;16392;52.508;13.468;2022-12-10T11:37:32;349.43;;;68.90;;
8562;SDS011;16392;52.508;13.468;2022-12-10T11:40:06;354.37;;;63.50;;
8562;SDS011;16392;52.508;13.468;2022-12-10T11:42:58;341.97;;;60.90;;
8562;SDS011;16392;52.508;13.468;2022-12-10T11:45:33;337.73;;;63.00;;
8562;SDS011;16392;52.508;13.468;2022-12-10T11:48:14;341.53;;;61.47;;
8562;SDS011;16392;52.508;13.468;2022-12-10T11:50:56;344.27;;;65.30;;
8562;SDS011;16392;52.508;13.468;2022-12-10T11:53:39;345.40;;;68.13;;
8562;SDS011;16392;52.508;13.468;2022-12-10T11:56:22;344.17;;;63.43;;
8562;SDS011;16392;52.508;13.468;2022-12-10T11:58:57;348.33;;;62.47;;
8562;SDS011;16392;52.508;13.468;2022-12-10T12:01:37;340.13;;;60.77;;
8562;SDS011;16392;52.508;13.468;2022-12-10T12:04:20;337.70;;;61.50;;
8562;SDS011;16392;52.508;13.468;2022-12-10T12:06:57;345.27;;;65.90;;
8562;SDS011;16392;52.508;13.468;2022-12-10T12:09:51;339.50;;;63.97;;
8562;SDS011;16392;52.508;13.468;2022-12-10T12:12:31;341.70;;;62.07;;
8562;SDS011;16392;52.508;13.468;2022-12-10T12:15:08;340.83;;;59.30;;
8562;SDS011;16392;52.508;13.468;2022-12-10T12:17:45;339.60;;;63.40;;
8562;SDS011;16392;52.508;13.468;2022-12-10T12:20:15;341.23;;;61.03;;
8562;SDS011;16392;52.508;13.468;2022-12-10T12:22:48;339.60;;;60.27;;
8562;SDS011;16392;52.508;13.468;2022-12-10T12:25:20;343.70;;;66.67;;
8562;SDS011;16392;52.508;13.468;2022-12-10T12:27:52;345.50;;;64.97;;
8562;SDS011;16392;52.508;13.468;2022-12-10T12:30:24;343.37;;;61.37;;
8562;SDS011;16392;52.508;13.468;2022-12-10T12:32:52;343.10;;;62.03;;
8562;SDS011;16392;52.508;13.468;2022-12-10T12:35:26;342.57;;;59.47;;
8562;SDS011;16392;52.508;13.468;2022-12-10T12:38:01;346.47;;;62.67;;
8562;SDS011;16392;52.508;13.468;2022-12-10T12:40:33;341.03;;;61.53;;
8562;SDS011;16392;52.508;13.468;2022-12-10T12:43:08;345.43;;;63.67;;
8562;SDS011;16392;52.508;13.468;2022-12-10T12:45:39;342.60;;;67.57;;
8562;SDS011;16392;52.508;13.468;2022-12-10T12:48:14;345.13;;;66.27;;
8562;SDS011;16392;52.508;13.468;2022-12-10T12:50:46;341.23;;;62.20;;
8562;SDS011;16392;52.508;13.468;2022-12-10T12:53:17;342.87;;;60.83;;
8562;SDS011;16392;52.508;13.468;2022-12-10T12:55:49;338.47;;;60.70;;
8562;SDS011;16392;52.508;13.468;2022-12-10T12:58:24;342.73;;;66.33;;
8562;SDS011;16392;52.508;13.468;2022-12-10T13:00:59;337.00;;;60.23;;
8562;SDS011;16392;52.508;13.468;2022-12-10T13:03:33;343.97;;;61.30;;
8562;SDS011;16392;52.508;13.468;2022-12-10T13:06:16;336.50;;;59.07;;
8562;SDS011;16392;52.508;13.468;2022-12-10T13:11:28;335.17;;;59.07;;
8562;SDS011;16392;52.508;13.468;2022-12-10T13:14:09;340.13;;;59.30;;
8562;SDS011;16392;52.508;13.468;2022-12-10T13:16:53;343.57;;;63.87;;
8562;SDS011;16392;52.508;13.468;2022-12-10T13:19:30;338.47;;;58.97;;
8562;SDS011;16392;52.508;13.468;2022-12-10T13:21:58;342.00;;;61.50;;
8562;SDS011;16392;52.508;13.468;2022-12-10T13:24:59;340.10;;;59.27;;
8562;SDS011;16392;52.508;13.468;2022-12-10T13:27:38;339.23;;;59.83;;
8562;SDS011;16392;52.508;13.468;2022-12-10T13:30:26;340.73;;;59.13;;
8562;SDS011;16392;52.508;13.468;2022-12-10T13:33:03;338.60;;;58.73;;
8562;SDS011;16392;52.508;13.468;2022-12-10T13:35:48;337.63;;;60.43;;
8562;SDS011;16392;52.508;13.468;2022-12-10T13:38:22;338.90;;;59.13;;
8562;SDS011;16392;52.508;13.468;2022-12-10T13:40:58;339.37;;;64.27;;
8562;SDS011;16392;52.508;13.468;2022-12-10T13:43:51;345.37;;;62.87;;
8562;SDS011;16392;52.508;13.468;2022-12-10T13:46:51;341.17;;;63.43;;
8562;SDS011;16392;52.508;13.468;2022-12-10T13:49:24;338.03;;;61.33;;
8562;SDS011;16392;52.508;13.468;2022-12-10T13:51:54;340.43;;;63.67;;
8562;SDS011;16392;52.508;13.468;2022-12-10T13:54:29;344.37;;;69.70;;
8562;SDS011;16392;52.508;13.468;2022-12-10T13:57:12;345.73;;;64.90;;
8562;SDS011;16392;52.508;13.468;2022-12-10T13:59:57;345.50;;;74.43;;
8562;SDS011;16392;52.508;13.468;2022-12-10T14:02:42;339.57;;;61.60;;
8562;SDS011;16392;52.508;13.468;2022-12-10T14:05:22;344.73;;;71.17;;
8562;SDS011;16392;52.508;13.468;2022-12-10T14:08:16;347.23;;;63.77;;
8562;SDS011;16392;52.508;13.468;2022-12-10T14:10:45;338.43;;;63.10;;
8562;SDS011;16392;52.508;13.468;2022-12-10T14:13:15;341.27;;;65.33;;
8562;SDS011;16392;52.508;13.468;2022-12-10T14:15:46;339.57;;;64.40;;
8562;SDS011;16392;52.508;13.468;2022-12-10T14:18:19;344.03;;;65.03;;
8562;SDS011;16392;52.508;13.468;2022-12-10T14:20:47;338.93;;;69.87;;
8562;SDS011;16392;52.508;13.468;2022-12-10T14:23:22;338.63;;;61.40;;
8562;SDS011;16392;52.508;13.468;2022-12-10T14:26:04;338.37;;;64.63;;
8562;SDS011;16392;52.508;13.468;2022-12-10T14:28:39;341.07;;;62.87;;
8562;SDS011;16392;52.508;13.468;2022-12-10T14:31:09;337.53;;;62.70;;
8562;SDS011;16392;52.508;13.468;2022-12-10T14:33:41;342.57;;;67.40;;
8562;SDS011;16392;52.508;13.468;2022-12-10T14:36:14;337.40;;;61.27;;
8562;SDS011;16392;52.508;13.468;2022-12-10T14:38:43;343.20;;;68.00;;